Bribie 1 — BRIBIE1 — position and weather

sailwx.info

Track history (hours):
 
Tides and Currents Weather Stations Pressure Air Temp Water Temp Dewpoint Dewpoint Depression Visibility Wind Speed Wind Dir Waves Ship Positions

Bribie 1

Last reported at 2017-Oct-22 06:53 UTC. Time now 2017-Oct-23 00:58 UTC.
Position S 27°04' E 153°09'.

Length 10 m; draft 1.2 m.

Type: SAR. MMSI: 503027760.

Date/timePositionNaut miles runAvg speedWind from/ knotsBaromVisibWave heightAir tempDewpointWater temp
2017-Oct-22 06:53S 27°04' E 153°09'0 0.0
2017-Oct-22 06:30S 27°04' E 153°09'1 1.3
2017-Oct-22 06:01S 27°04' E 153°09'2 4.7
2017-Oct-22 05:31S 27°07' E 153°09'3 4.8
2017-Oct-22 04:56S 27°04' E 153°09'0 0.1
2017-Oct-22 02:38S 27°04' E 153°09'1 4.5
2017-Oct-22 02:30S 27°04' E 153°09'1 1.5
2017-Oct-22 02:01S 27°05' E 153°09'510.6
2017-Oct-22 01:31S 27°09' E 153°13'4 7.8
2017-Oct-22 01:01S 27°07' E 153°09'3 3.8
2017-Oct-22 00:15S 27°04' E 153°09'0 0.2
2017-Oct-22 00:00S 27°04' E 153°09'0 0.0
2017-Oct-21 23:27S 27°04' E 153°09'0 0.0
2017-Oct-21 22:22S 27°04' E 153°09'0 0.0
2017-Oct-21 21:42S 27°04' E 153°09'0 0.0
2017-Oct-21 04:36S 27°04' E 153°09'0 0.0
2017-Oct-21 04:29S 27°04' E 153°09'0 0.0
2017-Oct-21 02:22S 27°04' E 153°09'0 0.0
2017-Oct-21 02:00S 27°04' E 153°09'1 0.7
2017-Oct-21 01:08S 27°04' E 153°08'0 0.7
2017-Oct-21 00:47S 27°04' E 153°08'0 0.2
2017-Oct-20 22:54S 27°04' E 153°09'0 0.0
2017-Oct-20 22:30S 27°04' E 153°09'0 0.0
2017-Oct-20 21:59S 27°04' E 153°09'0 0.0
2017-Oct-19 09:58S 27°04' E 153°09'0 0.0
2017-Oct-19 00:04S 27°04' E 153°09'0 0.0
2017-Oct-18 05:43S 27°04' E 153°09'  
2017-Oct-15 04:23S 27°04' E 153°09'0 0.0
2017-Oct-15 04:00S 27°04' E 153°09'0 0.0
2017-Oct-15 03:30S 27°04' E 153°09'0 0.0
2017-Oct-15 03:00S 27°04' E 153°09'0 0.0
2017-Oct-15 02:30S 27°04' E 153°09'0 0.0
2017-Oct-15 02:01S 27°04' E 153°09'0 0.0
2017-Oct-15 01:30S 27°04' E 153°09'0 0.0
2017-Oct-15 01:01S 27°04' E 153°09'0 0.0
2017-Oct-15 00:30S 27°04' E 153°09'0 0.0
2017-Oct-15 00:00S 27°04' E 153°09'1 1.2
2017-Oct-14 23:30S 27°04' E 153°09'1 1.2
2017-Oct-14 23:00S 27°04' E 153°09'0 0.0
2017-Oct-14 22:25S 27°04' E 153°09'0 0.0
2017-Oct-14 20:21S 27°04' E 153°09'0 0.0
2017-Oct-14 00:01S 27°04' E 153°09'0 0.0
2017-Oct-14 00:00S 27°04' E 153°09'1 2.6
2017-Oct-13 23:31S 27°05' E 153°09'0 0.5
2017-Oct-13 23:00S 27°05' E 153°09'1 2.5
2017-Oct-13 22:30S 27°04' E 153°09'0 0.1
2017-Oct-13 22:00S 27°04' E 153°09'0 0.1
2017-Oct-13 21:26S 27°04' E 153°09'0 0.0
2017-Oct-13 00:56S 27°04' E 153°09'2 3.9
2017-Oct-13 00:30S 27°05' E 153°09'2 3.1
2017-Oct-12 23:58S 27°04' E 153°09'  
Track history (hours):
 
Tides and Currents Weather Stations Pressure Air Temp Water Temp Dewpoint Dewpoint Depression Visibility Wind Speed Wind Dir Waves Ship Positions

Bribie 1

Last reported at 2017-Oct-22 06:53 UTC. Time now 2017-Oct-23 00:58 UTC.
Position S 27°04' E 153°09'.

Length 10 m; draft 1.2 m.

Type: SAR. MMSI: 503027760.

Date/timePositionNaut miles runAvg speedWind from/ knotsBaromVisibWave heightAir tempDewpointWater temp
2017-Oct-22 06:53S 27°04' E 153°09'0 0.0
2017-Oct-22 06:30S 27°04' E 153°09'1 1.3
2017-Oct-22 06:01S 27°04' E 153°09'2 4.7
2017-Oct-22 05:31S 27°07' E 153°09'3 4.8
2017-Oct-22 04:56S 27°04' E 153°09'0 0.1
2017-Oct-22 02:38S 27°04' E 153°09'1 4.5
2017-Oct-22 02:30S 27°04' E 153°09'1 1.5
2017-Oct-22 02:01S 27°05' E 153°09'510.6
2017-Oct-22 01:31S 27°09' E 153°13'4 7.8
2017-Oct-22 01:01S 27°07' E 153°09'3 3.8
2017-Oct-22 00:15S 27°04' E 153°09'0 0.2
2017-Oct-22 00:00S 27°04' E 153°09'0 0.0
2017-Oct-21 23:27S 27°04' E 153°09'0 0.0
2017-Oct-21 22:22S 27°04' E 153°09'0 0.0
2017-Oct-21 21:42S 27°04' E 153°09'0 0.0
2017-Oct-21 04:36S 27°04' E 153°09'0 0.0
2017-Oct-21 04:29S 27°04' E 153°09'0 0.0
2017-Oct-21 02:22S 27°04' E 153°09'0 0.0
2017-Oct-21 02:00S 27°04' E 153°09'1 0.7
2017-Oct-21 01:08S 27°04' E 153°08'0 0.7
2017-Oct-21 00:47S 27°04' E 153°08'0 0.2
2017-Oct-20 22:54S 27°04' E 153°09'0 0.0
2017-Oct-20 22:30S 27°04' E 153°09'0 0.0
2017-Oct-20 21:59S 27°04' E 153°09'0 0.0
2017-Oct-19 09:58S 27°04' E 153°09'0 0.0
2017-Oct-19 00:04S 27°04' E 153°09'0 0.0
2017-Oct-18 05:43S 27°04' E 153°09'  
2017-Oct-15 04:23S 27°04' E 153°09'0 0.0
2017-Oct-15 04:00S 27°04' E 153°09'0 0.0
2017-Oct-15 03:30S 27°04' E 153°09'0 0.0
2017-Oct-15 03:00S 27°04' E 153°09'0 0.0
2017-Oct-15 02:30S 27°04' E 153°09'0 0.0
2017-Oct-15 02:01S 27°04' E 153°09'0 0.0
2017-Oct-15 01:30S 27°04' E 153°09'0 0.0
2017-Oct-15 01:01S 27°04' E 153°09'0 0.0
2017-Oct-15 00:30S 27°04' E 153°09'0 0.0
2017-Oct-15 00:00S 27°04' E 153°09'1 1.2
2017-Oct-14 23:30S 27°04' E 153°09'1 1.2
2017-Oct-14 23:00S 27°04' E 153°09'0 0.0
2017-Oct-14 22:25S 27°04' E 153°09'0 0.0
2017-Oct-14 20:21S 27°04' E 153°09'0 0.0
2017-Oct-14 00:01S 27°04' E 153°09'0 0.0
2017-Oct-14 00:00S 27°04' E 153°09'1 2.6
2017-Oct-13 23:31S 27°05' E 153°09'0 0.5
2017-Oct-13 23:00S 27°05' E 153°09'1 2.5
2017-Oct-13 22:30S 27°04' E 153°09'0 0.1
2017-Oct-13 22:00S 27°04' E 153°09'0 0.1
2017-Oct-13 21:26S 27°04' E 153°09'0 0.0
2017-Oct-13 00:56S 27°04' E 153°09'2 3.9
2017-Oct-13 00:30S 27°05' E 153°09'2 3.1
2017-Oct-12 23:58S 27°04' E 153°09'  

Dump ship's entire track history